Time;durP1;ratioP1;P1;durP2;ratioP2;P2;SDS_P1;SDS_P2;PMS_P1;PMS_P2;Temp;Humidity;BMP_temperature;BMP_pressure;BME280_temperature;BME280_humidity;BME280_pressure;Samples;Min_cycle;Max_cycle;Signal;HPM_P1;HPM_P2
2021/03/30 00:00:22;;;;;;;9.53;4.63;;;10.30;63.10;;;;;;5091844;28;20290;-69
2021/03/30 00:02:49;;;;;;;9.63;4.77;;;10.30;64.10;;;;;;5091943;28;20512;-70
2021/03/30 00:05:15;;;;;;;11.60;4.60;;;10.30;63.30;;;;;;5092732;28;20724;-68
2021/03/30 00:07:40;;;;;;;12.10;5.13;;;10.30;63.20;;;;;;5091662;28;20330;-70
2021/03/30 00:10:09;;;;;;;10.73;5.13;;;10.30;63.20;;;;;;5092217;28;20454;-69
2021/03/30 00:12:34;;;;;;;11.07;5.23;;;10.40;63.40;;;;;;5092243;28;20047;-69
2021/03/30 00:15:00;;;;;;;10.60;5.03;;;10.40;63.50;;;;;;5091249;28;20294;-69
2021/03/30 00:17:26;;;;;;;12.20;5.57;;;10.40;63.70;;;;;;5092624;28;20071;-69
2021/03/30 00:19:51;;;;;;;8.63;5.00;;;10.40;63.90;;;;;;5091991;28;20070;-69
2021/03/30 00:22:20;;;;;;;13.33;5.10;;;10.30;63.90;;;;;;5091691;28;20054;-69
2021/03/30 00:24:45;;;;;;;14.23;5.37;;;10.40;64.10;;;;;;5091781;28;20298;-69
2021/03/30 00:27:11;;;;;;;13.40;5.30;;;10.40;64.20;;;;;;5092163;28;20077;-69
2021/03/30 00:29:43;;;;;;;15.23;5.27;;;10.40;64.30;;;;;;5091051;28;20101;-69
2021/03/30 00:32:10;;;;;;;10.95;5.25;;;10.40;64.30;;;;;;5091735;28;20048;-69
2021/03/30 00:34:36;;;;;;;14.90;6.13;;;10.40;64.40;;;;;;5091863;28;20176;-69
2021/03/30 00:37:02;;;;;;;9.57;5.20;;;10.40;64.60;;;;;;5090989;28;20342;-69
2021/03/30 00:39:28;;;;;;;13.27;5.97;;;10.40;64.70;;;;;;5092089;28;20066;-69
2021/03/30 00:41:54;;;;;;;13.17;6.40;;;10.40;64.80;;;;;;5091364;28;20298;-69
2021/03/30 00:44:20;;;;;;;12.80;5.90;;;10.40;64.90;;;;;;5090980;28;20063;-69
2021/03/30 00:46:46;;;;;;;11.40;6.13;;;10.40;65.10;;;;;;5091555;28;20519;-69
2021/03/30 00:49:15;;;;;;;10.10;5.97;;;10.30;66.20;;;;;;5092018;28;20055;-69
2021/03/30 00:51:43;;;;;;;11.80;6.03;;;10.30;65.50;;;;;;5090974;28;20734;-69
2021/03/30 00:54:09;;;;;;;9.37;5.80;;;10.30;65.70;;;;;;5091489;28;20324;-69
2021/03/30 00:56:36;;;;;;;14.60;6.20;;;10.30;65.70;;;;;;5090541;28;20390;-69
2021/03/30 00:59:03;;;;;;;12.37;5.83;;;10.30;65.60;;;;;;5091618;28;20071;-69
2021/03/30 01:01:29;;;;;;;11.83;6.07;;;10.30;65.30;;;;;;5091769;28;20716;-69
2021/03/30 01:03:55;;;;;;;13.90;6.90;;;10.30;65.40;;;;;;5090568;28;20365;-69
2021/03/30 01:06:22;;;;;;;12.23;6.00;;;10.30;65.40;;;;;;5090908;28;20074;-69
2021/03/30 01:09:30;;;;;;;11.70;6.33;;;10.30;65.40;;;;;;5091133;28;20457;-69
2021/03/30 01:12:22;;;;;;;14.03;6.97;;;10.30;65.80;;;;;;5090541;28;20105;-69
2021/03/30 01:15:16;;;;;;;12.70;6.60;;;10.30;65.60;;;;;;5090986;28;20708;-69
2021/03/30 01:18:08;;;;;;;15.00;6.10;;;10.20;65.80;;;;;;5090439;28;20325;-69
2021/03/30 01:20:56;;;;;;;11.50;6.45;;;10.20;65.60;;;;;;5091364;28;20324;-69
2021/03/30 01:23:57;;;;;;;13.83;7.30;;;10.20;65.70;;;;;;5091543;28;20052;-69
2021/03/30 01:26:25;;;;;;;11.87;7.03;;;10.20;65.60;;;;;;5090801;28;20697;-69
2021/03/30 01:28:54;;;;;;;12.77;5.73;;;10.20;65.40;;;;;;5090701;28;20834;-69
2021/03/30 01:31:22;;;;;;;16.63;6.37;;;10.20;65.30;;;;;;5091538;28;20298;-69
2021/03/30 01:33:51;;;;;;;13.27;6.13;;;10.20;65.30;;;;;;5090164;28;20427;-70
2021/03/30 01:36:19;;;;;;;12.23;6.57;;;10.20;65.30;;;;;;5091228;28;20371;-69
2021/03/30 01:38:46;;;;;;;12.50;6.40;;;10.20;65.30;;;;;;5090219;28;20304;-69
2021/03/30 01:41:13;;;;;;;11.20;7.00;;;10.10;65.20;;;;;;5091433;28;20336;-69
2021/03/30 01:43:44;;;;;;;11.60;6.37;;;10.10;65.20;;;;;;5090955;28;20860;-69
2021/03/30 01:46:10;;;;;;;12.85;7.25;;;10.10;65.40;;;;;;5090200;28;20334;-69
2021/03/30 01:48:36;;;;;;;11.83;5.93;;;10.10;65.20;;;;;;5090843;28;20044;-69
2021/03/30 01:51:02;;;;;;;13.63;6.50;;;10.10;65.10;;;;;;5090681;28;20355;-69
2021/03/30 01:53:29;;;;;;;11.13;6.43;;;10.10;65.10;;;;;;5090616;28;20492;-69
2021/03/30 01:55:58;;;;;;;9.20;5.83;;;10.10;65.00;;;;;;5090759;28;20317;-69
2021/03/30 01:58:26;;;;;;;11.60;6.57;;;10.10;65.10;;;;;;5091257;28;20293;-69
2021/03/30 02:00:54;;;;;;;14.03;5.50;;;10.10;65.10;;;;;;5089826;28;20309;-69
2021/03/30 02:03:21;;;;;;;9.73;5.80;;;10.00;65.10;;;;;;5090925;28;20308;-69
2021/03/30 02:05:47;;;;;;;11.43;6.67;;;10.00;65.10;;;;;;5090645;28;20642;-69
2021/03/30 02:08:14;;;;;;;9.37;5.63;;;10.00;65.10;;;;;;5090578;28;20297;-69
2021/03/30 02:13:11;;;;;;;13.30;6.30;;;10.00;65.20;;;;;;5090633;28;20818;-69
2021/03/30 02:15:37;;;;;;;15.77;6.70;;;10.00;65.20;;;;;;5089814;28;20841;-69
2021/03/30 02:18:06;;;;;;;19.10;6.67;;;9.90;65.20;;;;;;5093992;28;20138;-69
2021/03/30 02:20:45;;;;;;;12.03;5.43;;;9.90;65.20;;;;;;5094522;28;20048;-70
2021/03/30 02:23:19;;;;;;;14.00;6.80;;;9.90;65.30;;;;;;5094030;28;20298;-69
2021/03/30 02:25:47;;;;;;;11.97;5.90;;;9.90;65.30;;;;;;5094036;28;20778;-69
2021/03/30 02:28:15;;;;;;;14.93;6.57;;;9.80;65.30;;;;;;5093751;28;20675;-69
2021/03/30 02:30:42;;;;;;;13.37;6.33;;;9.80;65.30;;;;;;5094368;28;20305;-69
2021/03/30 02:33:14;;;;;;;13.00;6.50;;;9.70;65.40;;;;;;5094255;28;20301;-69
2021/03/30 02:35:40;;;;;;;11.57;5.45;;;9.70;65.60;;;;;;5093511;28;20309;-69
2021/03/30 02:38:07;;;;;;;11.87;5.73;;;9.70;65.60;;;;;;5094084;28;20063;-69
2021/03/30 02:40:34;;;;;;;9.57;5.47;;;9.70;65.70;;;;;;5093960;28;20298;-69
2021/03/30 02:43:01;;;;;;;13.83;6.23;;;9.60;65.70;;;;;;5093122;28;20294;-69
2021/03/30 02:45:30;;;;;;;9.13;5.80;;;9.60;65.80;;;;;;5094104;28;20403;-69
2021/03/30 02:48:01;;;;;;;11.33;6.00;;;9.60;65.90;;;;;;5093742;28;20307;-69
2021/03/30 02:50:28;;;;;;;14.00;6.35;;;9.60;65.90;;;;;;5093486;28;20293;-69
2021/03/30 02:52:58;;;;;;;18.90;6.37;;;9.60;66.00;;;;;;5093478;28;20044;-69
2021/03/30 02:55:23;;;;;;;9.30;5.77;;;9.60;66.10;;;;;;5093869;28;20306;-69
2021/03/30 02:57:50;;;;;;;13.60;5.97;;;9.50;66.00;;;;;;5092818;28;20286;-69
2021/03/30 03:00:16;;;;;;;12.00;5.03;;;9.50;66.10;;;;;;5094130;28;20048;-68
2021/03/30 03:02:52;;;;;;;12.00;6.13;;;9.50;66.20;;;;;;5093389;28;20313;-69
2021/03/30 03:05:18;;;;;;;12.37;5.53;;;9.40;66.30;;;;;;5093041;28;20802;-69
2021/03/30 03:07:44;;;;;;;11.47;5.67;;;9.40;66.40;;;;;;5093474;28;20411;-69
2021/03/30 03:10:10;;;;;;;11.73;6.57;;;9.40;66.40;;;;;;5093178;28;20047;-69
2021/03/30 03:12:38;;;;;;;13.20;6.67;;;9.40;66.40;;;;;;5093566;28;20355;-69
2021/03/30 03:15:07;;;;;;;9.40;5.57;;;9.40;66.40;;;;;;5093475;28;20098;-69
2021/03/30 03:17:34;;;;;;;14.37;6.67;;;9.40;66.40;;;;;;5092731;28;20087;-70
2021/03/30 03:20:01;;;;;;;14.33;6.60;;;9.30;66.50;;;;;;5093313;28;20663;-69
2021/03/30 03:22:28;;;;;;;11.13;5.47;;;9.30;66.50;;;;;;5093425;28;20332;-69
2021/03/30 03:24:54;;;;;;;11.37;5.77;;;9.30;66.60;;;;;;5092246;28;20341;-69
2021/03/30 03:27:20;;;;;;;12.13;5.80;;;9.30;66.80;;;;;;5093397;28;20317;-69
2021/03/30 03:29:46;;;;;;;16.00;6.37;;;9.30;66.80;;;;;;5092203;28;20298;-69
2021/03/30 03:32:12;;;;;;;14.33;7.03;;;9.20;66.90;;;;;;5092650;28;20071;-69
2021/03/30 03:34:37;;;;;;;12.63;6.07;;;9.20;67.00;;;;;;5092916;28;20048;-69
2021/03/30 03:37:04;;;;;;;9.83;5.70;;;9.20;67.10;;;;;;5092790;28;20044;-69
2021/03/30 03:39:30;;;;;;;12.63;6.10;;;9.30;67.20;;;;;;5092648;28;20048;-68
2021/03/30 03:41:55;;;;;;;10.57;6.03;;;9.20;67.20;;;;;;5092665;28;20893;-69
2021/03/30 03:44:21;;;;;;;13.63;6.40;;;9.20;67.30;;;;;;5093106;28;20055;-68
2021/03/30 03:46:49;;;;;;;13.70;5.90;;;9.20;67.40;;;;;;5091842;28;20072;-69
2021/03/30 03:49:15;;;;;;;11.77;6.20;;;9.20;67.50;;;;;;5093015;28;20056;-68
2021/03/30 03:51:50;;;;;;;11.90;6.23;;;9.20;67.50;;;;;;5092526;28;20770;-69
2021/03/30 03:54:19;;;;;;;13.47;6.57;;;9.20;67.70;;;;;;5092065;28;20511;-69
2021/03/30 03:56:53;;;;;;;14.17;7.77;;;9.20;67.80;;;;;;5092259;28;20313;-70
2021/03/30 03:59:25;;;;;;;10.07;5.60;;;9.20;67.90;;;;;;5092409;28;20369;-69
2021/03/30 04:02:14;;;;;;;12.90;6.33;;;9.10;68.00;;;;;;5092218;28;20293;-69
2021/03/30 04:04:50;;;;;;;14.23;6.47;;;9.10;68.20;;;;;;5092529;28;20328;-69
2021/03/30 04:07:21;;;;;;;14.47;6.70;;;9.10;68.10;;;;;;5091990;28;20301;-69
2021/03/30 04:09:50;;;;;;;11.10;6.43;;;9.10;68.20;;;;;;5092104;28;20337;-69
2021/03/30 04:12:18;;;;;;;11.80;6.90;;;9.10;68.30;;;;;;5092508;28;20330;-69
2021/03/30 04:14:44;;;;;;;14.63;6.60;;;9.00;68.40;;;;;;5091398;28;20390;-69
2021/03/30 04:17:17;;;;;;;15.63;6.87;;;9.00;69.40;;;;;;5092185;28;20803;-69
2021/03/30 04:19:47;;;;;;;11.67;6.67;;;9.00;68.60;;;;;;5092279;28;20063;-69
2021/03/30 04:22:14;;;;;;;15.83;6.77;;;9.00;68.70;;;;;;5091744;28;20750;-69
2021/03/30 04:24:44;;;;;;;10.93;7.07;;;9.00;68.80;;;;;;5092123;28;20290;-69
2021/03/30 04:27:10;;;;;;;16.03;7.47;;;8.90;69.00;;;;;;5092136;28;20305;-69
2021/03/30 04:29:37;;;;;;;13.50;6.70;;;8.90;69.00;;;;;;5091410;28;20282;-69
2021/03/30 04:32:03;;;;;;;15.80;7.90;;;8.90;69.10;;;;;;5092051;28;20309;-69
2021/03/30 04:34:29;;;;;;;12.83;6.93;;;8.90;69.10;;;;;;5091477;28;20631;-69
2021/03/30 04:36:55;;;;;;;13.43;7.50;;;8.90;69.30;;;;;;5091388;28;20316;-69
2021/03/30 04:39:21;;;;;;;13.60;7.40;;;8.90;69.50;;;;;;5091888;28;20122;-69
2021/03/30 04:41:46;;;;;;;14.43;8.40;;;8.80;69.40;;;;;;5090634;28;20738;-69
2021/03/30 04:44:12;;;;;;;12.90;7.23;;;8.80;69.60;;;;;;5092080;28;20055;-69
2021/03/30 04:46:38;;;;;;;14.80;8.17;;;8.80;70.60;;;;;;5091745;28;20481;-69
2021/03/30 04:49:03;;;;;;;15.73;8.13;;;8.80;69.80;;;;;;5098571;28;20040;-69
2021/03/30 04:51:29;;;;;;;14.30;8.43;;;8.80;69.90;;;;;;5100692;28;20051;-69
2021/03/30 04:53:55;;;;;;;14.30;7.33;;;8.70;69.90;;;;;;5102353;28;20044;-68
2021/03/30 04:56:21;;;;;;;15.23;8.10;;;8.70;70.00;;;;;;5098897;28;20052;-69
2021/03/30 04:58:46;;;;;;;14.87;8.30;;;8.70;70.00;;;;;;5101808;28;20047;-69
2021/03/30 05:01:12;;;;;;;14.07;8.40;;;8.70;70.00;;;;;;5100609;28;20301;-68
2021/03/30 05:03:38;;;;;;;14.97;8.17;;;8.70;70.00;;;;;;5100523;28;20404;-69
2021/03/30 05:06:04;;;;;;;16.43;9.00;;;8.70;70.10;;;;;;5101197;28;20059;-69
2021/03/30 05:08:30;;;;;;;19.83;8.93;;;8.70;70.00;;;;;;5102962;28;20388;-68
2021/03/30 05:10:56;;;;;;;15.87;10.07;;;8.70;70.10;;;;;;5092765;28;20107;-69
2021/03/30 05:13:21;;;;;;;13.03;8.60;;;8.70;70.20;;;;;;5091382;28;20044;-70
2021/03/30 05:15:47;;;;;;;16.23;9.30;;;8.60;70.20;;;;;;5090927;28;20059;-69
2021/03/30 05:18:13;;;;;;;17.33;9.70;;;8.60;70.40;;;;;;5090955;28;20488;-69
2021/03/30 05:20:39;;;;;;;16.90;9.93;;;8.60;70.40;;;;;;5091099;28;20043;-68
2021/03/30 05:23:05;;;;;;;20.83;10.07;;;8.60;70.50;;;;;;5090923;28;20298;-69
2021/03/30 05:25:30;;;;;;;15.50;9.30;;;8.50;70.70;;;;;;5090535;28;20044;-68
2021/03/30 05:27:56;;;;;;;15.83;9.97;;;8.60;70.80;;;;;;5090822;28;20067;-68
2021/03/30 05:30:22;;;;;;;15.67;9.50;;;8.50;70.80;;;;;;5091423;28;20055;-70
2021/03/30 05:32:48;;;;;;;13.80;9.67;;;8.50;70.90;;;;;;5089732;28;20051;-69
2021/03/30 05:35:14;;;;;;;14.63;9.30;;;8.50;70.90;;;;;;5091156;28;20347;-69
2021/03/30 05:37:39;;;;;;;14.90;9.87;;;8.50;70.90;;;;;;5090893;28;20048;-68
2021/03/30 05:40:14;;;;;;;15.17;9.90;;;8.50;71.00;;;;;;5090096;28;20067;-69
2021/03/30 05:42:39;;;;;;;18.43;10.10;;;8.50;71.10;;;;;;5091099;28;20326;-68
2021/03/30 05:45:10;;;;;;;15.53;10.00;;;8.50;71.00;;;;;;5089936;28;20379;-67
2021/03/30 05:47:36;;;;;;;14.63;9.50;;;8.50;71.00;;;;;;5091117;28;20055;-70
2021/03/30 05:50:11;;;;;;;16.50;9.90;;;8.50;70.80;;;;;;5090708;28;20293;-67
2021/03/30 05:52:55;;;;;;;16.00;10.10;;;8.50;70.90;;;;;;5092979;28;20290;-68
2021/03/30 05:55:25;;;;;;;13.80;9.23;;;8.50;70.80;;;;;;5095018;28;20294;-68
2021/03/30 05:57:57;;;;;;;14.97;9.33;;;8.60;70.70;;;;;;5094299;28;20294;-69
2021/03/30 06:00:24;;;;;;;;;;;8.60;70.60;;;;;;5094405;28;20290;-69
2021/03/30 06:02:53;;;;;;;14.00;9.57;;;8.60;70.70;;;;;;5092488;28;20548;-69
2021/03/30 06:05:19;;;;;;;17.07;9.90;;;8.60;70.40;;;;;;5094571;28;20343;-68
2021/03/30 06:07:45;;;;;;;19.57;10.73;;;8.70;70.40;;;;;;5093681;28;20303;-69
2021/03/30 06:10:14;;;;;;;15.53;9.70;;;8.70;70.30;;;;;;5094954;28;20348;-69
2021/03/30 06:12:40;;;;;;;17.43;10.77;;;8.70;70.30;;;;;;5094281;28;20040;-69
2021/03/30 06:15:08;;;;;;;20.03;10.13;;;8.80;70.10;;;;;;5093576;28;20321;-69
2021/03/30 06:18:00;;;;;;;13.70;9.77;;;8.80;70.00;;;;;;5094037;28;20048;-69
2021/03/30 06:20:35;;;;;;;16.60;10.00;;;8.90;70.10;;;;;;5089263;28;20323;-69
2021/03/30 06:23:04;;;;;;;14.93;10.33;;;9.10;69.70;;;;;;5094327;28;20302;-69
2021/03/30 06:25:43;;;;;;;15.00;9.60;;;9.30;69.50;;;;;;5094588;28;20321;-70
2021/03/30 06:28:19;;;;;;;16.87;10.53;;;9.40;69.10;;;;;;5093795;28;20321;-69
2021/03/30 06:31:07;;;;;;;14.87;10.23;;;9.60;68.70;;;;;;5093846;28;20793;-69
2021/03/30 06:33:35;;;;;;;17.20;9.30;;;9.70;68.30;;;;;;5094077;28;20294;-69
2021/03/30 06:36:14;;;;;;;16.97;10.57;;;10.00;67.90;;;;;;5093062;28;20301;-69
2021/03/30 06:38:50;;;;;;;14.20;10.27;;;10.30;67.30;;;;;;5094120;28;20753;-69
2021/03/30 06:44:26;;;;;;;12.83;9.50;;;10.80;66.00;;;;;;5093682;28;20294;-69
2021/03/30 06:47:05;;;;;;;14.83;9.70;;;10.80;66.10;;;;;;5093405;28;20126;-69
2021/03/30 06:49:36;;;;;;;18.40;9.87;;;10.90;65.50;;;;;;5093280;28;20459;-69
2021/03/30 06:52:16;;;;;;;12.60;9.70;;;10.80;65.20;;;;;;5093754;28;20123;-69
2021/03/30 06:54:57;;;;;;;16.80;9.73;;;10.70;64.80;;;;;;5093672;28;20072;-69
2021/03/30 06:57:46;;;;;;;14.77;9.93;;;10.70;65.10;;;;;;5093094;28;20393;-69
2021/03/30 07:00:24;;;;;;;15.60;9.17;;;10.80;65.10;;;;;;5093943;28;20044;-69
2021/03/30 07:02:53;;;;;;;14.03;9.63;;;10.80;64.90;;;;;;5092425;28;20089;-70
2021/03/30 07:05:31;;;;;;;13.47;9.63;;;10.80;65.10;;;;;;5093645;28;20056;-69
2021/03/30 07:08:02;;;;;;;15.23;9.53;;;10.80;65.00;;;;;;5093525;28;20052;-69
2021/03/30 07:10:29;;;;;;;15.70;9.83;;;11.00;64.90;;;;;;5093000;28;20048;-69
2021/03/30 07:12:55;;;;;;;14.03;8.80;;;11.20;64.60;;;;;;5093065;28;20040;-69
2021/03/30 07:15:24;;;;;;;15.77;9.53;;;11.30;64.30;;;;;;5093440;28;20048;-69
2021/03/30 07:18:20;;;;;;;15.23;8.80;;;11.50;64.70;;;;;;5091982;28;20056;-69
2021/03/30 07:21:30;;;;;;;17.03;8.90;;;11.90;63.40;;;;;;5092980;28;20048;-69
2021/03/30 07:24:01;;;;;;;14.27;8.67;;;12.10;62.30;;;;;;4990234;28;20500;-69
2021/03/30 07:26:52;;;;;;;19.42;8.00;;;12.10;62.90;;;;;;4991701;28;20054;-69
2021/03/30 07:29:22;;;;;;;12.57;8.00;;;12.10;62.20;;;;;;5064131;28;20072;-69
2021/03/30 07:32:17;;;;;;;17.65;8.38;;;12.10;62.20;;;;;;5092396;28;20067;-69
2021/03/30 07:35:02;;;;;;;13.07;7.90;;;12.20;62.10;;;;;;5093286;28;20048;-69
2021/03/30 07:37:59;;;;;;;13.97;8.10;;;12.40;61.40;;;;;;5092224;28;20057;-69
2021/03/30 07:40:25;;;;;;;14.40;8.20;;;12.50;61.30;;;;;;5093015;28;20053;-70
2021/03/30 07:42:51;;;;;;;15.67;7.83;;;12.50;62.40;;;;;;5092414;28;20090;-69
2021/03/30 07:45:21;;;;;;;19.53;9.60;;;12.60;61.30;;;;;;5092015;28;20087;-69
2021/03/30 07:47:48;;;;;;;17.03;8.73;;;12.70;61.00;;;;;;5092297;28;20497;-70
2021/03/30 07:50:17;;;;;;;12.97;7.30;;;13.00;60.80;;;;;;5092851;28;20127;-70
2021/03/30 07:52:53;;;;;;;13.97;8.50;;;13.00;60.40;;;;;;5091746;28;20501;-69
2021/03/30 07:55:27;;;;;;;16.43;8.27;;;13.00;60.80;;;;;;5092718;28;20450;-69
2021/03/30 07:57:56;;;;;;;12.80;6.97;;;13.20;60.90;;;;;;5092336;28;20055;-70
2021/03/30 08:00:49;;;;;;;15.63;7.47;;;13.50;60.70;;;;;;5092102;28;20050;-69
2021/03/30 08:03:19;;;;;;;17.43;7.47;;;13.80;59.30;;;;;;5088995;28;20044;-70
2021/03/30 08:06:02;;;;;;;18.87;8.17;;;13.80;59.90;;;;;;5091264;28;20126;-69
2021/03/30 08:08:28;;;;;;;13.50;7.50;;;13.90;59.70;;;;;;5092607;28;20496;-69
2021/03/30 08:10:54;;;;;;;16.07;7.20;;;14.20;59.20;;;;;;5091840;28;20052;-70
2021/03/30 08:13:29;;;;;;;14.33;7.13;;;14.40;59.00;;;;;;5091803;28;20072;-70
2021/03/30 08:16:24;;;;;;;14.93;6.63;;;14.70;58.60;;;;;;5091302;28;20048;-70
2021/03/30 08:18:52;;;;;;;18.13;7.80;;;15.20;56.50;;;;;;5070469;28;20054;-70
2021/03/30 08:21:19;;;;;;;14.50;7.40;;;15.50;57.70;;;;;;5091502;28;20050;-70
2021/03/30 08:23:55;;;;;;;12.33;6.97;;;15.80;57.30;;;;;;5091816;28;20067;-70
2021/03/30 08:26:27;;;;;;;17.83;6.90;;;16.20;56.10;;;;;;5092107;28;20115;-70
2021/03/30 08:29:09;;;;;;;17.03;7.23;;;16.50;56.50;;;;;;5090785;28;20075;-70
2021/03/30 08:31:51;;;;;;;20.77;7.10;;;16.70;55.60;;;;;;5092105;28;20055;-69
2021/03/30 08:34:27;;;;;;;15.10;6.60;;;16.80;55.30;;;;;;5091319;28;20408;-70
2021/03/30 08:36:55;;;;;;;13.77;6.43;;;17.00;54.80;;;;;;5091350;28;20519;-70
2021/03/30 08:39:21;;;;;;;13.70;6.17;;;16.90;54.50;;;;;;5092054;28;20066;-70
2021/03/30 08:41:54;;;;;;;15.07;6.37;;;17.00;54.50;;;;;;5090466;28;20513;-70
2021/03/30 08:44:39;;;;;;;13.73;6.17;;;17.10;54.30;;;;;;5091896;28;20060;-70
2021/03/30 08:47:05;;;;;;;12.83;6.77;;;17.40;53.60;;;;;;5091674;28;20131;-70
2021/03/30 08:49:32;;;;;;;18.53;6.63;;;17.70;53.50;;;;;;5091087;28;20052;-70
2021/03/30 08:52:01;;;;;;;15.27;6.77;;;18.00;52.70;;;;;;5091381;28;20089;-70
2021/03/30 08:54:33;;;;;;;14.33;5.53;;;18.40;53.00;;;;;;5091860;28;20054;-70
2021/03/30 08:57:01;;;;;;;25.33;7.27;;;18.60;51.70;;;;;;5090421;28;20484;-70
2021/03/30 08:59:29;;;;;;;17.60;6.33;;;18.60;51.20;;;;;;5091532;28;20507;-70
2021/03/30 09:02:04;;;;;;;13.57;6.10;;;18.30;51.10;;;;;;5090229;28;20040;-70
2021/03/30 09:04:35;;;;;;;12.97;6.13;;;18.10;50.90;;;;;;5091894;28;20131;-70
2021/03/30 09:07:00;;;;;;;14.55;6.10;;;18.10;51.50;;;;;;5091276;28;20514;-70
2021/03/30 09:09:33;;;;;;;15.17;5.97;;;18.40;51.60;;;;;;5091122;28;20059;-70
2021/03/30 09:11:59;;;;;;;13.70;6.27;;;18.50;51.00;;;;;;5091386;28;20051;-70
2021/03/30 09:14:25;;;;;;;20.67;6.67;;;18.50;50.70;;;;;;5091338;28;20511;-70
2021/03/30 09:16:51;;;;;;;14.37;6.30;;;18.50;50.50;;;;;;5089981;28;20047;-70
2021/03/30 09:19:25;;;;;;;14.57;6.10;;;18.40;50.30;;;;;;5091532;28;20093;-70
2021/03/30 09:22:02;;;;;;;9.40;5.87;;;18.30;50.30;;;;;;5091007;28;20052;-70
2021/03/30 09:24:40;;;;;;;15.63;6.70;;;18.30;49.80;;;;;;5090578;28;20048;-70
2021/03/30 09:27:06;;;;;;;11.50;6.37;;;18.10;50.00;;;;;;5093223;28;20505;-70
2021/03/30 09:29:35;;;;;;;13.20;5.80;;;18.00;50.50;;;;;;5095271;28;20481;-70
2021/03/30 09:32:05;;;;;;;16.07;6.27;;;17.80;50.50;;;;;;5094524;28;20489;-70
2021/03/30 09:34:31;;;;;;;16.83;6.47;;;17.70;50.50;;;;;;5095815;28;20068;-70
2021/03/30 09:36:59;;;;;;;12.33;5.50;;;17.50;50.70;;;;;;5094427;28;20082;-70
2021/03/30 09:39:26;;;;;;;16.03;6.20;;;17.30;50.70;;;;;;5095191;28;20489;-69
2021/03/30 09:41:53;;;;;;;17.60;6.37;;;17.30;51.30;;;;;;5094722;28;20096;-70
2021/03/30 09:44:21;;;;;;;16.17;6.17;;;17.20;51.00;;;;;;5094547;28;20040;-70
2021/03/30 09:46:53;;;;;;;13.33;5.70;;;17.30;51.10;;;;;;5094780;28;20066;-69
2021/03/30 09:49:24;;;;;;;13.23;6.50;;;17.20;51.00;;;;;;5095391;28;20378;-69
2021/03/30 09:51:52;;;;;;;16.77;6.97;;;17.20;51.10;;;;;;5093884;28;20509;-69
2021/03/30 09:54:37;;;;;;;15.57;6.13;;;17.10;51.10;;;;;;5095192;28;20040;-69
2021/03/30 09:57:21;;;;;;;15.63;6.73;;;17.20;50.90;;;;;;5094747;28;20047;-69
2021/03/30 09:59:48;;;;;;;13.87;6.37;;;17.20;51.20;;;;;;5094013;28;20127;-69
2021/03/30 10:02:16;;;;;;;14.53;6.20;;;17.30;51.10;;;;;;5095022;28;20108;-69
2021/03/30 10:04:41;;;;;;;15.33;6.30;;;17.30;50.60;;;;;;5094838;28;20055;-69
2021/03/30 10:07:19;;;;;;;13.57;6.30;;;17.30;50.70;;;;;;5094076;28;20130;-70
2021/03/30 10:10:04;;;;;;;14.70;6.60;;;17.30;50.50;;;;;;5094692;28;20113;-69
2021/03/30 10:12:35;;;;;;;10.87;6.80;;;17.30;50.80;;;;;;5094094;28;20078;-69
2021/03/30 10:15:02;;;;;;;15.73;7.03;;;17.30;50.90;;;;;;5094382;28;20554;-68
2021/03/30 10:17:30;;;;;;;12.23;7.20;;;17.30;50.60;;;;;;5094921;28;20127;-68
2021/03/30 10:19:58;;;;;;;18.73;7.77;;;17.30;49.80;;;;;;5093679;28;20055;-68
2021/03/30 10:22:34;;;;;;;16.90;7.57;;;17.30;49.80;;;;;;5094389;28;20126;-68
2021/03/30 10:25:27;;;;;;;14.93;7.13;;;17.30;49.60;;;;;;5094261;28;20122;-70
2021/03/30 10:27:57;;;;;;;14.07;7.27;;;17.40;49.30;;;;;;5092793;28;20044;-69
2021/03/30 10:30:30;;;;;;;14.27;7.90;;;17.50;49.20;;;;;;5094573;28;20052;-69
2021/03/30 10:32:58;;;;;;;15.17;7.57;;;17.50;48.30;;;;;;5093771;28;20044;-70
2021/03/30 10:35:24;;;;;;;17.07;6.90;;;17.60;49.10;;;;;;5093481;28;20052;-70
2021/03/30 10:37:51;;;;;;;14.57;7.20;;;17.60;48.90;;;;;;5093203;28;20055;-70
2021/03/30 10:40:17;;;;;;;17.70;7.40;;;17.70;48.70;;;;;;5093784;28;20044;-69
2021/03/30 10:42:43;;;;;;;16.10;7.20;;;17.80;48.30;;;;;;5094126;28;20414;-69
2021/03/30 10:45:10;;;;;;;13.17;6.97;;;17.90;47.30;;;;;;5093696;28;20063;-69
2021/03/30 10:47:42;;;;;;;12.03;6.67;;;18.00;47.10;;;;;;5093084;28;20056;-69
2021/03/30 10:50:10;;;;;;;;;;;18.10;46.80;;;;;;5093952;28;20040;-69
2021/03/30 10:52:36;;;;;;;13.87;7.03;;;18.20;46.80;;;;;;5093449;28;20321;-69
2021/03/30 10:55:13;;;;;;;15.33;7.30;;;18.30;46.90;;;;;;5093186;28;20058;-69
2021/03/30 10:57:44;;;;;;;11.90;6.73;;;18.40;47.00;;;;;;5097647;28;20470;-69
2021/03/30 11:00:10;;;;;;;16.00;7.18;;;18.50;46.50;;;;;;5104759;28;20051;-70
2021/03/30 11:02:36;;;;;;;13.87;6.77;;;18.60;46.10;;;;;;5101592;28;20138;-69
2021/03/30 11:05:03;;;;;;;11.07;6.03;;;18.80;46.20;;;;;;5107662;28;20565;-70
2021/03/30 11:07:29;;;;;;;13.67;6.43;;;18.90;45.50;;;;;;5114439;28;20104;-70
2021/03/30 11:09:55;;;;;;;12.63;6.03;;;19.00;45.30;;;;;;5112867;28;20059;-70
2021/03/30 11:12:21;;;;;;;12.53;6.10;;;19.10;45.20;;;;;;5114264;28;20496;-69
2021/03/30 11:14:47;;;;;;;11.00;5.50;;;19.20;44.40;;;;;;5113287;28;20120;-70
2021/03/30 11:17:12;;;;;;;11.17;5.97;;;19.30;43.90;;;;;;5113208;28;20051;-69
2021/03/30 11:19:38;;;;;;;11.13;5.57;;;19.40;43.90;;;;;;5113581;28;20054;-70
2021/03/30 11:22:05;;;;;;;12.80;5.37;;;19.40;43.00;;;;;;5113718;28;20461;-68
2021/03/30 11:24:34;;;;;;;11.53;5.50;;;19.50;42.50;;;;;;5113238;28;20056;-69
2021/03/30 11:27:00;;;;;;;9.93;6.13;;;19.60;42.70;;;;;;5113358;28;20065;-70
2021/03/30 11:34:46;;;;;;;8.73;4.60;;;19.60;42.20;;;;;;5113338;28;20086;-69
2021/03/30 11:39:38;;;;;;;10.03;5.20;;;19.80;41.20;;;;;;5113169;28;20044;-70
2021/03/30 11:42:05;;;;;;;7.87;4.23;;;19.90;40.60;;;;;;5113094;28;20116;-69
2021/03/30 11:44:32;;;;;;;9.27;4.30;;;20.10;40.00;;;;;;5094216;28;20099;-70
2021/03/30 11:46:59;;;;;;;10.07;5.00;;;20.20;39.10;;;;;;5112908;28;20134;-70
2021/03/30 11:49:25;;;;;;;9.33;4.60;;;20.30;38.60;;;;;;5112258;28;20479;-69
2021/03/30 11:51:51;;;;;;;13.63;4.43;;;20.30;37.70;;;;;;5112290;28;20058;-70
2021/03/30 11:54:16;;;;;;;9.17;4.27;;;20.30;37.50;;;;;;5113401;28;20047;-70
2021/03/30 11:56:42;;;;;;;8.70;4.37;;;20.40;37.60;;;;;;5112564;28;20055;-70
2021/03/30 11:59:07;;;;;;;12.47;4.77;;;20.50;37.80;;;;;;5112144;28;20122;-69
2021/03/30 12:01:33;;;;;;;11.60;4.80;;;20.60;37.90;;;;;;5113069;28;20057;-69
2021/03/30 12:03:59;;;;;;;9.13;4.80;;;20.70;37.80;;;;;;5112684;28;20503;-70
2021/03/30 12:06:24;;;;;;;8.23;4.27;;;20.80;36.90;;;;;;5112369;28;20044;-70
2021/03/30 12:08:50;;;;;;;8.40;3.57;;;20.90;36.00;;;;;;5112303;28;20044;-70
2021/03/30 12:11:16;;;;;;;11.10;4.17;;;21.00;34.60;;;;;;5112986;28;20059;-70
2021/03/30 12:13:42;;;;;;;10.43;5.57;;;21.10;34.20;;;;;;5111724;28;20040;-69
2021/03/30 12:16:07;;;;;;;10.83;5.17;;;21.20;34.70;;;;;;5112904;28;20051;-69
2021/03/30 12:18:33;;;;;;;12.57;4.30;;;21.20;34.50;;;;;;5112392;28;20129;-70
2021/03/30 12:20:59;;;;;;;11.27;4.20;;;21.20;34.60;;;;;;5111677;28;20043;-70
2021/03/30 12:23:24;;;;;;;7.70;4.03;;;21.30;34.50;;;;;;5112428;28;20492;-70
2021/03/30 12:25:50;;;;;;;8.70;4.47;;;21.40;33.20;;;;;;5109898;28;20500;-69
2021/03/30 12:28:16;;;;;;;6.97;3.90;;;21.40;32.80;;;;;;5099134;28;20130;-70
2021/03/30 12:30:42;;;;;;;33.07;8.43;;;21.50;32.70;;;;;;5104128;28;20047;-70
2021/03/30 12:33:08;;;;;;;9.53;4.20;;;21.50;33.10;;;;;;5111664;28;20103;-70
2021/03/30 12:35:33;;;;;;;12.33;4.13;;;21.50;32.90;;;;;;5111896;28;20044;-70
2021/03/30 12:37:59;;;;;;;20.47;6.83;;;21.50;32.80;;;;;;5111811;28;20048;-69
2021/03/30 12:40:25;;;;;;;10.77;4.13;;;21.60;32.60;;;;;;5111640;28;20384;-70
2021/03/30 12:42:51;;;;;;;12.03;5.00;;;21.50;32.10;;;;;;5111571;28;20086;-69
2021/03/30 12:45:18;;;;;;;9.50;3.80;;;21.50;32.80;;;;;;5109902;28;20058;-69
2021/03/30 12:47:44;;;;;;;7.93;5.27;;;21.50;32.40;;;;;;5111253;28;20134;-69
2021/03/30 12:50:11;;;;;;;8.40;4.53;;;21.60;33.10;;;;;;5112145;28;20044;-68
2021/03/30 12:52:37;;;;;;;7.77;4.60;;;21.60;32.60;;;;;;5111639;28;20048;-68
2021/03/30 12:55:06;;;;;;;18.27;12.53;;;21.60;31.80;;;;;;5110624;28;20054;-68
2021/03/30 12:57:32;;;;;;;10.07;4.80;;;21.60;32.70;;;;;;5111083;28;20515;-69
2021/03/30 12:59:58;;;;;;;8.83;4.70;;;21.60;32.30;;;;;;5111288;28;20468;-69
2021/03/30 13:02:23;;;;;;;9.33;5.50;;;21.60;32.30;;;;;;5111265;28;20047;-69
2021/03/30 13:04:49;;;;;;;9.47;5.77;;;21.60;32.70;;;;;;5111424;28;20105;-69
2021/03/30 13:07:18;;;;;;;8.27;4.60;;;21.60;32.30;;;;;;5111414;28;20093;-69